createdAt,value
2023-01-09T00:02:17.820Z,17.38
2023-01-09T00:05:22.135Z,12.77
2023-01-09T00:08:25.113Z,14.05
2023-01-09T00:11:30.960Z,12.95
2023-01-09T00:14:33.946Z,12.52
2023-01-09T00:17:38.376Z,13.85
2023-01-09T00:20:41.670Z,15.23
2023-01-09T00:23:44.637Z,14.10
2023-01-09T00:26:47.686Z,17.30
2023-01-09T00:29:50.650Z,12.82
2023-01-09T00:32:55.381Z,14.27
2023-01-09T00:35:58.400Z,18.45
2023-01-09T00:39:01.435Z,17.35
2023-01-09T00:42:06.006Z,11.63
2023-01-09T00:45:15.139Z,16.65
2023-01-09T00:48:26.998Z,13.65
2023-01-09T00:51:30.191Z,13.05
2023-01-09T00:54:33.769Z,18.67
2023-01-09T00:57:37.102Z,12.93
2023-01-09T01:00:40.147Z,15.37
2023-01-09T01:03:44.590Z,12.85
2023-01-09T01:07:05.098Z,17.50
2023-01-09T01:10:12.184Z,14.15
2023-01-09T01:13:15.903Z,13.73
2023-01-09T01:16:19.274Z,15.85
2023-01-09T01:19:23.648Z,11.60
2023-01-09T01:22:26.659Z,15.13
2023-01-09T01:25:29.696Z,12.63
2023-01-09T01:28:32.782Z,16.20
2023-01-09T01:31:35.760Z,16.52
2023-01-09T01:34:40.111Z,12.60
2023-01-09T01:37:43.067Z,13.15
2023-01-09T01:40:47.692Z,11.00
2023-01-09T01:43:53.478Z,13.02
2023-01-09T01:46:58.129Z,13.63
2023-01-09T01:50:09.079Z,10.30
2023-01-09T01:53:19.408Z,13.27
2023-01-09T01:56:29.159Z,13.20
2023-01-09T01:59:39.680Z,10.75
2023-01-09T02:02:45.769Z,13.63
2023-01-09T02:05:50.743Z,9.43
2023-01-09T02:08:54.080Z,13.60
2023-01-09T02:12:02.246Z,10.77
2023-01-09T02:15:09.308Z,10.18
2023-01-09T02:18:37.581Z,10.10
2023-01-09T02:22:02.653Z,10.15
2023-01-09T02:25:50.207Z,13.27
2023-01-09T02:29:47.397Z,10.65
2023-01-09T02:33:14.402Z,12.70
2023-01-09T02:36:30.099Z,12.13
2023-01-09T02:39:43.483Z,14.35
2023-01-09T02:42:51.726Z,11.43
2023-01-09T02:45:54.792Z,11.20
2023-01-09T02:48:59.265Z,10.70
2023-01-09T02:52:20.881Z,12.95
2023-01-09T02:55:42.920Z,11.93
2023-01-09T02:59:13.911Z,11.40
2023-01-09T03:02:43.456Z,16.05
2023-01-09T03:05:56.582Z,11.55
2023-01-09T03:09:06.337Z,11.35
2023-01-09T03:12:18.210Z,11.55
2023-01-09T03:15:27.267Z,13.38
2023-01-09T03:18:33.541Z,12.93
2023-01-09T03:21:39.037Z,15.32
2023-01-09T03:24:42.077Z,11.90
2023-01-09T03:27:45.036Z,14.25
2023-01-09T03:30:47.976Z,15.43
2023-01-09T03:33:51.176Z,17.50
2023-01-09T03:36:55.516Z,13.30
2023-01-09T03:39:58.449Z,13.55
2023-01-09T03:43:01.367Z,14.52
2023-01-09T03:46:05.176Z,10.20
2023-01-09T03:49:08.178Z,15.55
2023-01-09T03:52:13.935Z,12.77
2023-01-09T03:55:17.153Z,15.07
2023-01-09T03:58:21.878Z,12.23
2023-01-09T04:01:24.959Z,10.63
2023-01-09T04:04:28.599Z,11.88
2023-01-09T04:07:32.918Z,9.25
2023-01-09T04:10:35.903Z,11.45
2023-01-09T04:13:39.760Z,10.25
2023-01-09T04:16:43.422Z,10.82
2023-01-09T04:19:46.522Z,10.80
2023-01-09T04:22:50.949Z,11.68
2023-01-09T04:25:53.959Z,10.23
2023-01-09T04:28:56.940Z,9.55
2023-01-09T04:31:59.944Z,14.65
2023-01-09T04:35:02.940Z,12.20
2023-01-09T04:38:07.216Z,14.27
2023-01-09T04:41:10.196Z,11.60
2023-01-09T04:44:13.145Z,11.32
2023-01-09T04:47:16.130Z,12.75
2023-01-09T04:50:19.365Z,11.30
2023-01-09T04:53:23.751Z,10.23
2023-01-09T04:56:26.886Z,14.23
2023-01-09T04:59:29.875Z,13.77
2023-01-09T05:02:32.955Z,14.45
2023-01-09T05:05:35.935Z,12.23
2023-01-09T05:08:40.384Z,12.13
2023-01-09T05:11:43.397Z,10.90
2023-01-09T05:14:46.321Z,9.45
2023-01-09T05:17:49.306Z,12.88
2023-01-09T05:20:52.318Z,10.00
2023-01-09T05:23:56.690Z,10.35
2023-01-09T05:26:59.677Z,13.38
2023-01-09T05:30:02.745Z,10.88
2023-01-09T05:33:05.755Z,11.57
2023-01-09T05:36:09.572Z,10.40
2023-01-09T05:39:14.109Z,11.25
2023-01-09T05:42:17.201Z,12.45
2023-01-09T05:45:20.323Z,10.73
2023-01-09T05:48:23.291Z,12.65
2023-01-09T05:51:26.280Z,13.00
2023-01-09T05:54:30.597Z,12.23
2023-01-09T05:57:33.587Z,8.93
2023-01-09T06:00:36.980Z,10.55
2023-01-09T06:03:39.910Z,11.67
2023-01-09T06:06:42.995Z,10.73
2023-01-09T06:09:47.303Z,15.68
2023-01-09T06:12:53.145Z,12.45
2023-01-09T06:15:56.175Z,10.77
2023-01-09T06:19:00.560Z,10.85
2023-01-09T06:22:03.781Z,12.55
2023-01-09T06:25:09.579Z,10.13
2023-01-09T06:28:12.636Z,13.88
2023-01-09T06:31:15.629Z,16.35
2023-01-09T06:34:18.632Z,12.85
2023-01-09T06:37:21.648Z,8.23
2023-01-09T06:40:25.934Z,9.27
2023-01-09T06:43:29.013Z,12.88
2023-01-09T06:46:33.058Z,13.15
2023-01-09T06:49:38.185Z,13.15
2023-01-09T06:52:41.418Z,12.48
2023-01-09T06:55:47.261Z,12.60
2023-01-09T06:58:50.283Z,13.30
2023-01-09T07:01:53.528Z,13.30
2023-01-09T07:04:56.986Z,15.53
2023-01-09T07:08:00.040Z,15.40
2023-01-09T07:11:04.307Z,14.70
2023-01-09T07:14:07.785Z,13.38
2023-01-09T07:17:13.333Z,14.65
2023-01-09T07:20:16.733Z,14.90
2023-01-09T07:23:19.760Z,15.70
2023-01-09T07:26:24.119Z,15.07
2023-01-09T07:29:27.130Z,12.18
2023-01-09T07:32:30.151Z,12.57
2023-01-09T07:35:33.197Z,12.88
2023-01-09T07:38:37.591Z,17.00
2023-01-09T07:41:42.135Z,15.02
2023-01-09T07:44:45.291Z,13.02
2023-01-09T07:47:48.441Z,15.30
2023-01-09T07:50:51.471Z,18.93
2023-01-09T07:53:54.507Z,11.63
2023-01-09T07:56:59.850Z,13.65
2023-01-09T08:00:03.494Z,15.35
2023-01-09T08:03:06.569Z,15.10
2023-01-09T08:06:10.225Z,12.05
2023-01-09T08:09:13.913Z,11.50
2023-01-09T08:12:18.284Z,16.13
2023-01-09T08:15:21.338Z,14.80
2023-01-09T08:18:24.393Z,15.90
2023-01-09T08:21:27.433Z,12.95
2023-01-09T08:24:32.708Z,13.32
2023-01-09T08:27:37.041Z,12.73
2023-01-09T08:30:40.928Z,16.02
2023-01-09T08:33:44.008Z,10.82
2023-01-09T08:36:47.087Z,16.00
2023-01-09T08:39:50.047Z,16.00
2023-01-09T08:43:11.958Z,13.93
2023-01-09T08:46:39.696Z,16.00
2023-01-09T08:49:42.785Z,15.85
2023-01-09T08:52:45.967Z,17.03
2023-01-09T08:55:48.930Z,14.93
2023-01-09T08:58:53.255Z,15.50
2023-01-09T09:01:59.066Z,17.02
2023-01-09T09:05:02.160Z,15.23
2023-01-09T09:08:06.144Z,18.55
2023-01-09T09:11:09.129Z,15.52
2023-01-09T09:14:31.363Z,16.50
2023-01-09T09:17:34.582Z,21.88
2023-01-09T09:20:40.141Z,19.00
2023-01-09T09:23:44.186Z,15.52
2023-01-09T09:26:47.192Z,13.35
2023-01-09T09:29:51.477Z,15.40
2023-01-09T09:32:54.572Z,14.85
2023-01-09T09:36:00.573Z,19.65
2023-01-09T09:39:03.901Z,18.40
2023-01-09T09:43:07.859Z,18.63
2023-01-09T09:46:30.432Z,17.45
2023-01-09T09:49:48.494Z,15.70
2023-01-09T09:52:59.666Z,17.52
2023-01-09T09:56:02.711Z,14.55
2023-01-09T09:59:15.607Z,11.95
2023-01-09T10:02:30.485Z,13.60
2023-01-09T10:05:38.761Z,14.65
2023-01-09T10:08:53.429Z,11.70
2023-01-09T10:12:03.890Z,10.82
2023-01-09T10:15:19.225Z,13.52
2023-01-09T10:18:48.350Z,7.82
2023-01-09T10:22:05.289Z,8.98
2023-01-09T10:25:23.849Z,6.68
2023-01-09T10:28:55.525Z,6.78
2023-01-09T10:32:30.852Z,6.88
2023-01-09T10:35:58.782Z,6.35
2023-01-09T10:39:08.447Z,7.53
2023-01-09T10:42:22.921Z,7.28
2023-01-09T10:48:36.335Z,9.23
2023-01-09T10:51:47.773Z,7.13
2023-01-09T10:54:57.714Z,8.60
2023-01-09T10:58:05.571Z,7.35
2023-01-09T11:01:10.700Z,6.38
2023-01-09T11:04:26.831Z,7.55
2023-01-09T11:07:38.190Z,8.32
2023-01-09T11:10:50.744Z,10.65
2023-01-09T11:14:08.299Z,10.52
2023-01-09T11:17:22.137Z,6.75
2023-01-09T11:20:29.964Z,5.78
2023-01-09T11:23:34.787Z,7.22
2023-01-09T11:26:38.059Z,5.68
2023-01-09T11:29:41.515Z,4.70
2023-01-09T11:32:47.200Z,6.28
2023-01-09T11:36:08.108Z,3.63
2023-01-09T11:39:25.703Z,5.03
2023-01-09T11:42:48.864Z,3.83
2023-01-09T11:46:01.680Z,6.85
2023-01-09T11:49:22.929Z,4.30
2023-01-09T11:52:26.563Z,3.72
2023-01-09T11:55:41.981Z,3.63
2023-01-09T11:58:46.687Z,3.00
2023-01-09T12:05:38.666Z,3.40
2023-01-09T12:08:57.931Z,2.35
2023-01-09T12:12:18.252Z,2.42
2023-01-09T12:15:32.174Z,2.72
2023-01-09T12:18:54.215Z,2.08
2023-01-09T12:22:11.560Z,2.60
2023-01-09T12:25:31.807Z,3.35
2023-01-09T12:29:06.019Z,3.00
2023-01-09T12:32:28.143Z,3.08
2023-01-09T12:35:41.327Z,2.42
2023-01-09T12:38:55.037Z,3.75
2023-01-09T12:42:34.971Z,2.85
2023-01-09T12:46:04.224Z,4.72
2023-01-09T12:49:30.376Z,2.33
2023-01-09T12:52:43.199Z,5.03
2023-01-09T12:55:54.067Z,3.08
2023-01-09T12:59:03.369Z,2.45
2023-01-09T13:02:24.330Z,2.70
2023-01-09T13:05:36.398Z,3.50
2023-01-09T13:08:44.681Z,2.60
2023-01-09T13:12:03.288Z,3.00
2023-01-09T13:15:27.559Z,4.55
2023-01-09T13:18:43.665Z,6.00
2023-01-09T13:21:47.477Z,4.22
2023-01-09T13:25:34.675Z,3.95
2023-01-09T13:28:49.369Z,3.08
2023-01-09T13:32:38.381Z,5.22
2023-01-09T13:35:57.246Z,3.63
2023-01-09T13:39:02.919Z,3.22
2023-01-09T13:42:26.130Z,6.50
2023-01-09T13:45:37.118Z,6.03
2023-01-09T13:48:46.362Z,5.15
2023-01-09T13:52:04.977Z,4.60
2023-01-09T13:55:38.626Z,3.42
2023-01-09T13:59:05.635Z,3.72
2023-01-09T14:03:02.121Z,2.75
2023-01-09T14:06:20.233Z,3.20
2023-01-09T14:09:25.884Z,2.88
2023-01-09T14:12:41.874Z,4.10
2023-01-09T14:15:47.320Z,3.08
2023-01-09T14:18:57.474Z,2.05
2023-01-09T14:22:03.139Z,2.78
2023-01-09T14:25:19.256Z,4.20
2023-01-09T14:28:26.024Z,3.67
2023-01-09T14:31:35.370Z,4.43
2023-01-09T14:34:43.646Z,4.43
2023-01-09T14:38:03.656Z,5.95
2023-01-09T14:41:47.913Z,5.10
2023-01-09T14:44:59.787Z,5.00
2023-01-09T14:48:09.909Z,9.00
2023-01-09T14:51:20.421Z,5.97
2023-01-09T14:54:38.878Z,7.55
2023-01-09T14:57:46.043Z,4.45
2023-01-09T15:00:57.936Z,5.22
2023-01-09T15:04:07.363Z,6.72
2023-01-09T15:07:30.881Z,6.15
2023-01-09T15:10:38.607Z,5.28
2023-01-09T15:13:49.036Z,9.48
2023-01-09T15:16:52.225Z,4.22
2023-01-09T15:19:56.902Z,6.53
2023-01-09T15:23:01.621Z,4.75
2023-01-09T15:26:26.030Z,6.03
2023-01-09T15:29:30.369Z,12.85
2023-01-09T15:32:33.601Z,6.85
2023-01-09T15:35:37.420Z,6.67
2023-01-09T15:38:42.601Z,4.68
2023-01-09T15:42:06.042Z,4.07
2023-01-09T15:45:23.990Z,5.25
2023-01-09T15:48:30.772Z,8.98
2023-01-09T15:51:34.703Z,5.63
2023-01-09T15:54:39.835Z,5.97
2023-01-09T15:57:52.675Z,8.10
2023-01-09T16:01:00.726Z,9.65
2023-01-09T16:04:16.961Z,8.15
2023-01-09T16:07:22.365Z,7.63
2023-01-09T16:10:31.358Z,6.95
2023-01-09T16:13:44.329Z,7.85
2023-01-09T16:16:54.770Z,5.80
2023-01-09T16:20:14.841Z,12.35
2023-01-09T16:23:33.912Z,10.13
2023-01-09T16:26:37.338Z,9.10
2023-01-09T16:29:49.824Z,7.05
2023-01-09T16:32:54.180Z,8.93
2023-01-09T16:35:59.038Z,11.27
2023-01-09T16:39:03.301Z,10.20
2023-01-09T16:42:27.954Z,9.73
2023-01-09T16:48:40.305Z,14.23
2023-01-09T16:51:43.359Z,10.90
2023-01-09T16:54:47.507Z,10.15
